Chicago, Illinois
Traffic Map
Current Weather Conditions
Chicago, Illinois
Broken Clouds
Broken Clouds

Feels Like: -2°
Wind Chill: -2° Ceiling: 25000
Heat Index: Visibility: 10mi
Dew Point: -2° Wind: 9mph
Humidity: 76% Direction: 200° (SSW)
Pressure: 29.93in Gusts: 0mph
Raw Report DataKMDW 201453Z 20008KT 10SM BKN250 02/M02 A2993 RMK AO2 SLP144 T00221017 53021
Traffic Incident Summary
Active as of:
Severity:
Category:
InformationThere was an issue retrieving the traffic information for this location. Please try a different location or try again shortly.
Advertisements